createdAt,value
2018-05-01T00:00:55.640Z,5.20
2018-05-01T00:01:55.606Z,3.90
2018-05-01T00:02:55.579Z,3.60
2018-05-01T00:03:55.558Z,4.00
2018-05-01T00:04:55.535Z,2.70
2018-05-01T00:05:55.499Z,2.50
2018-05-01T00:06:55.475Z,3.50
2018-05-01T00:07:55.452Z,3.00
2018-05-01T00:08:55.419Z,2.90
2018-05-01T00:09:55.399Z,3.10
2018-05-01T00:10:55.372Z,3.70
2018-05-01T00:11:55.344Z,3.10
2018-05-01T00:12:55.318Z,3.50
2018-05-01T00:13:55.288Z,3.80
2018-05-01T00:14:55.256Z,3.40
2018-05-01T00:15:55.239Z,3.70
2018-05-01T00:16:55.212Z,2.80
2018-05-01T00:17:55.178Z,3.30
2018-05-01T00:18:55.148Z,2.90
2018-05-01T00:19:55.132Z,3.40
2018-05-01T00:20:55.096Z,3.40
2018-05-01T00:21:55.073Z,3.20
2018-05-01T00:22:55.050Z,3.10
2018-05-01T00:23:55.014Z,3.30
2018-05-01T00:24:54.997Z,3.20
2018-05-01T00:25:54.958Z,4.00
2018-05-01T00:26:54.941Z,3.30
2018-05-01T00:27:54.910Z,4.40
2018-05-01T00:28:54.880Z,3.30
2018-05-01T00:29:54.860Z,3.00
2018-05-01T00:30:54.824Z,3.60
2018-05-01T00:31:54.804Z,4.70
2018-05-01T00:32:54.780Z,2.90
2018-05-01T00:33:54.748Z,2.60
2018-05-01T00:34:54.727Z,3.30
2018-05-01T00:35:54.694Z,3.10
2018-05-01T00:36:54.667Z,3.10
2018-05-01T00:37:54.638Z,3.20
2018-05-01T00:38:54.614Z,3.50
2018-05-01T00:39:54.591Z,3.20
2018-05-01T00:40:54.557Z,3.60
2018-05-01T00:41:54.536Z,3.90
2018-05-01T00:42:54.512Z,2.90
2018-05-01T00:43:54.478Z,3.30
2018-05-01T00:44:54.458Z,4.70
2018-05-01T00:45:54.420Z,3.00
2018-05-01T00:46:54.394Z,3.50
2018-05-01T00:47:54.375Z,3.60
2018-05-01T00:48:54.341Z,2.60
2018-05-01T00:49:54.321Z,2.80
2018-05-01T00:50:54.292Z,3.30
2018-05-01T00:51:54.268Z,3.00
2018-05-01T00:52:54.244Z,3.30
2018-05-01T00:53:54.211Z,2.90
2018-05-01T00:54:54.181Z,3.20
2018-05-01T00:55:54.159Z,3.00
2018-05-01T00:56:54.129Z,2.90
2018-05-01T00:57:54.101Z,2.80
2018-05-01T00:58:54.078Z,2.50
2018-05-01T00:59:54.058Z,3.30
2018-05-01T01:00:54.023Z,2.90
2018-05-01T01:01:53.994Z,2.60
2018-05-01T01:02:53.967Z,3.20
2018-05-01T01:03:53.942Z,2.70
2018-05-01T01:04:53.912Z,2.70
2018-05-01T01:05:53.891Z,3.20
2018-05-01T01:06:53.863Z,3.50
2018-05-01T01:07:53.833Z,3.80
2018-05-01T01:08:53.810Z,3.40
2018-05-01T01:09:53.773Z,3.40
2018-05-01T01:10:53.745Z,3.60
2018-05-01T01:11:53.730Z,4.20
2018-05-01T01:12:53.700Z,3.90
2018-05-01T01:13:53.676Z,3.40
2018-05-01T01:14:53.647Z,3.40
2018-05-01T01:15:53.612Z,4.50
2018-05-01T01:16:53.589Z,3.50
2018-05-01T01:17:53.566Z,3.90
2018-05-01T01:18:53.531Z,3.80
2018-05-01T01:19:53.513Z,4.30
2018-05-01T01:20:53.484Z,3.50
2018-05-01T01:21:53.458Z,4.70
2018-05-01T01:22:53.432Z,3.40
2018-05-01T01:23:53.410Z,3.70
2018-05-01T01:24:53.372Z,3.20
2018-05-01T01:25:53.351Z,3.40
2018-05-01T01:26:53.323Z,3.40
2018-05-01T01:27:53.295Z,3.10
2018-05-01T01:28:53.271Z,3.50
2018-05-01T01:29:53.242Z,3.60
2018-05-01T01:30:53.211Z,3.80
2018-05-01T01:31:53.185Z,3.70
2018-05-01T01:32:53.160Z,3.90
2018-05-01T01:33:53.137Z,3.90
2018-05-01T01:34:53.102Z,3.70
2018-05-01T01:35:53.081Z,3.20
2018-05-01T01:36:53.049Z,3.60
2018-05-01T01:37:53.028Z,3.10
2018-05-01T01:38:53.004Z,4.00
2018-05-01T01:39:52.965Z,3.60
2018-05-01T01:40:52.941Z,3.60
2018-05-01T01:41:52.913Z,3.90
2018-05-01T01:42:52.892Z,3.50
2018-05-01T01:43:52.865Z,3.50
2018-05-01T01:44:52.841Z,4.00
2018-05-01T01:45:52.815Z,3.90
2018-05-01T01:46:52.784Z,3.70
2018-05-01T01:47:52.751Z,3.70
2018-05-01T01:48:52.731Z,3.50
2018-05-01T01:49:52.700Z,3.70
2018-05-01T01:50:52.670Z,3.60
2018-05-01T01:51:52.653Z,3.30
2018-05-01T01:52:52.619Z,4.00
2018-05-01T01:53:52.592Z,3.80
2018-05-01T01:54:52.566Z,3.50
2018-05-01T01:55:52.537Z,4.20
2018-05-01T01:56:52.506Z,3.90
2018-05-01T01:57:52.481Z,3.70
2018-05-01T01:58:52.463Z,3.90
2018-05-01T01:59:52.432Z,3.70
2018-05-01T02:00:52.408Z,3.60
2018-05-01T02:01:52.379Z,4.60
2018-05-01T02:02:52.346Z,3.80
2018-05-01T02:03:52.330Z,3.80
2018-05-01T02:04:52.298Z,3.70
2018-05-01T02:05:52.270Z,3.80
2018-05-01T02:06:52.242Z,4.20
2018-05-01T02:07:52.220Z,3.70
2018-05-01T02:08:52.198Z,3.40
2018-05-01T02:09:52.158Z,4.80
2018-05-01T02:10:52.138Z,4.20
2018-05-01T02:11:52.115Z,3.90
2018-05-01T02:12:52.081Z,4.10
2018-05-01T02:13:52.059Z,3.90
2018-05-01T02:14:52.028Z,4.00
2018-05-01T02:15:52.005Z,3.90
2018-05-01T02:16:51.975Z,4.60
2018-05-01T02:17:51.949Z,4.50
2018-05-01T02:18:51.921Z,4.00
2018-05-01T02:19:51.892Z,3.70
2018-05-01T02:20:51.864Z,4.40
2018-05-01T02:21:51.846Z,4.50
2018-05-01T02:22:51.808Z,5.00
2018-05-01T02:23:51.789Z,4.90
2018-05-01T02:24:51.753Z,6.70
2018-05-01T02:25:51.732Z,4.70
2018-05-01T02:26:51.698Z,4.60
2018-05-01T02:27:51.676Z,4.90
2018-05-01T02:28:51.650Z,4.80
2018-05-01T02:29:51.619Z,5.10
2018-05-01T02:30:51.603Z,5.10
2018-05-01T02:31:51.569Z,4.70
2018-05-01T02:32:51.547Z,5.30
2018-05-01T02:33:51.615Z,5.10
2018-05-01T02:34:51.485Z,4.90
2018-05-01T02:35:51.462Z,4.60
2018-05-01T02:36:51.438Z,4.80
2018-05-01T02:37:51.404Z,4.40
2018-05-01T02:38:51.376Z,3.70
2018-05-01T02:39:51.357Z,4.20
2018-05-01T02:40:51.327Z,4.40
2018-05-01T02:41:51.301Z,5.10
2018-05-01T02:42:51.266Z,5.20
2018-05-01T02:43:51.258Z,4.40
2018-05-01T02:44:51.225Z,5.00
2018-05-01T02:45:51.190Z,5.10
2018-05-01T02:46:51.168Z,5.00
2018-05-01T02:47:51.134Z,6.50
2018-05-01T02:48:51.109Z,5.80
2018-05-01T02:49:51.083Z,5.80
2018-05-01T02:50:51.052Z,6.10
2018-05-01T02:51:51.033Z,6.50
2018-05-01T02:52:51.008Z,5.50
2018-05-01T02:53:50.973Z,5.90
2018-05-01T02:54:50.947Z,6.20
2018-05-01T02:55:50.927Z,6.00
2018-05-01T02:56:50.898Z,6.70
2018-05-01T02:57:50.862Z,6.20
2018-05-01T02:58:50.839Z,5.90
2018-05-01T02:59:50.820Z,7.60
2018-05-01T03:00:50.789Z,6.00
2018-05-01T03:01:50.761Z,7.00
2018-05-01T03:02:50.734Z,6.80
2018-05-01T03:03:50.704Z,7.20
2018-05-01T03:04:50.684Z,6.50
2018-05-01T03:05:50.652Z,6.60
2018-05-01T03:06:50.623Z,7.30
2018-05-01T03:07:50.603Z,6.80
2018-05-01T03:08:50.578Z,7.00
2018-05-01T03:09:50.570Z,6.30
2018-05-01T03:10:50.519Z,6.50
2018-05-01T03:11:50.491Z,7.80
2018-05-01T03:12:50.466Z,7.10
2018-05-01T03:13:50.435Z,7.00
2018-05-01T03:14:50.406Z,6.20
2018-05-01T03:15:50.382Z,6.90
2018-05-01T03:16:50.352Z,7.50
2018-05-01T03:17:50.341Z,8.00
2018-05-01T03:18:50.307Z,8.10
2018-05-01T03:19:50.272Z,8.60
2018-05-01T03:20:50.254Z,8.90
2018-05-01T03:21:50.224Z,8.30
2018-05-01T03:22:50.190Z,8.30
2018-05-01T03:23:50.179Z,10.40
2018-05-01T03:24:50.137Z,8.50
2018-05-01T03:25:50.117Z,8.90
2018-05-01T03:26:50.091Z,9.70
2018-05-01T03:27:50.056Z,9.40
2018-05-01T03:28:50.031Z,8.90
2018-05-01T03:29:50.008Z,10.20
2018-05-01T03:30:49.984Z,11.00
2018-05-01T03:31:49.953Z,10.00
2018-05-01T03:32:49.931Z,10.00
2018-05-01T03:33:49.891Z,13.30
2018-05-01T03:34:49.867Z,10.40
2018-05-01T03:35:49.849Z,10.30
2018-05-01T03:36:49.812Z,10.40
2018-05-01T03:37:49.792Z,10.70
2018-05-01T03:38:49.767Z,10.80
2018-05-01T03:39:49.744Z,10.80
2018-05-01T03:40:49.713Z,12.60
2018-05-01T03:41:49.677Z,13.40
2018-05-01T03:42:49.653Z,11.50
2018-05-01T03:43:49.634Z,13.40
2018-05-01T03:44:49.597Z,10.20
2018-05-01T03:45:49.580Z,10.60
2018-05-01T03:46:49.548Z,11.90
2018-05-01T03:47:49.518Z,12.00
2018-05-01T03:48:49.495Z,11.60
2018-05-01T03:49:49.464Z,11.30
2018-05-01T03:50:49.438Z,12.40
2018-05-01T03:51:49.413Z,10.90
2018-05-01T03:52:49.381Z,11.10
2018-05-01T03:53:49.362Z,11.10
2018-05-01T03:54:49.332Z,12.80
2018-05-01T03:55:49.396Z,12.30
2018-05-01T03:56:49.277Z,11.50
2018-05-01T03:57:49.251Z,12.70
2018-05-01T03:58:49.236Z,11.60
2018-05-01T03:59:49.197Z,11.80
2018-05-01T04:00:49.169Z,11.20
2018-05-01T04:01:49.144Z,11.00
2018-05-01T04:02:49.122Z,12.60
2018-05-01T04:03:49.086Z,12.40
2018-05-01T04:04:49.066Z,11.50
2018-05-01T04:05:49.032Z,11.40
2018-05-01T04:06:49.006Z,11.20
2018-05-01T04:07:48.986Z,12.80
2018-05-01T04:08:48.956Z,11.10
2018-05-01T04:09:48.931Z,13.40
2018-05-01T04:10:48.897Z,12.90
2018-05-01T04:11:48.875Z,14.00
2018-05-01T04:12:48.849Z,13.20
2018-05-01T04:13:48.813Z,12.20
2018-05-01T04:14:48.795Z,11.10
2018-05-01T04:15:48.762Z,12.70
2018-05-01T04:16:48.734Z,14.90
2018-05-01T04:17:48.715Z,12.40
2018-05-01T04:18:48.676Z,14.90
2018-05-01T04:19:48.654Z,12.90
2018-05-01T04:20:48.631Z,15.10
2018-05-01T04:21:48.601Z,14.40
2018-05-01T04:22:48.579Z,15.20
2018-05-01T04:23:48.546Z,14.00
2018-05-01T04:24:48.522Z,16.60
2018-05-01T04:25:48.490Z,15.30
2018-05-01T04:26:48.463Z,15.70
2018-05-01T04:27:48.444Z,17.30
2018-05-01T04:28:48.410Z,15.70
2018-05-01T04:29:48.389Z,16.60
2018-05-01T04:30:48.364Z,15.50
2018-05-01T04:31:48.333Z,14.60
2018-05-01T04:32:48.312Z,16.00
2018-05-01T04:33:48.279Z,15.60
2018-05-01T04:34:48.251Z,16.30
2018-05-01T04:35:48.221Z,15.40
2018-05-01T04:36:48.198Z,16.50
2018-05-01T04:37:48.172Z,15.80
2018-05-01T04:38:48.145Z,17.80
2018-05-01T04:39:48.115Z,17.00
2018-05-01T04:40:48.092Z,16.20
2018-05-01T04:41:48.076Z,17.70
2018-05-01T04:42:48.034Z,16.20
2018-05-01T04:43:48.008Z,18.90
2018-05-01T04:44:47.991Z,18.40
2018-05-01T04:45:47.949Z,18.10
2018-05-01T04:46:47.938Z,18.60
2018-05-01T04:47:47.906Z,22.60
2018-05-01T04:48:47.875Z,21.20
2018-05-01T04:49:47.843Z,18.70
2018-05-01T04:50:47.815Z,18.50
2018-05-01T04:51:47.876Z,19.20
2018-05-01T04:52:47.764Z,19.00
2018-05-01T04:53:47.739Z,22.10
2018-05-01T04:54:47.711Z,19.70
2018-05-01T04:55:47.681Z,18.80
2018-05-01T04:56:47.662Z,22.80
2018-05-01T04:57:47.632Z,21.20
2018-05-01T04:58:47.598Z,20.60
2018-05-01T04:59:47.582Z,22.00
2018-05-01T05:00:47.547Z,23.00
2018-05-01T05:01:47.528Z,22.40
2018-05-01T05:02:47.494Z,19.80
2018-05-01T05:03:47.472Z,21.70
2018-05-01T05:04:47.442Z,22.00
2018-05-01T05:05:47.417Z,22.80
2018-05-01T05:06:47.395Z,24.80
2018-05-01T05:07:47.360Z,24.90
2018-05-01T05:08:47.339Z,24.50
2018-05-01T05:09:47.309Z,25.10
2018-05-01T05:10:47.282Z,23.80
2018-05-01T05:11:47.275Z,23.40
2018-05-01T05:12:47.872Z,24.40
2018-05-01T05:13:47.199Z,26.20
2018-05-01T05:14:47.175Z,23.80
2018-05-01T05:15:47.145Z,25.10
2018-05-01T05:16:47.117Z,23.80
2018-05-01T05:17:47.092Z,23.00
2018-05-01T05:18:47.070Z,26.40
2018-05-01T05:19:47.062Z,27.90
2018-05-01T05:20:47.006Z,28.10
2018-05-01T05:21:46.986Z,27.90
2018-05-01T05:22:46.952Z,29.00
2018-05-01T05:23:46.928Z,25.60
2018-05-01T05:24:46.898Z,26.40
2018-05-01T05:25:46.879Z,25.80
2018-05-01T05:26:46.854Z,23.10
2018-05-01T05:27:46.818Z,29.00
2018-05-01T05:28:46.798Z,24.70
2018-05-01T05:29:46.770Z,26.20
2018-05-01T05:30:46.744Z,26.70
2018-05-01T05:31:46.711Z,24.20
2018-05-01T05:32:46.689Z,28.80
2018-05-01T05:33:46.658Z,25.60
2018-05-01T05:34:46.632Z,25.50
2018-05-01T05:35:46.606Z,29.00
2018-05-01T05:36:46.586Z,25.20
2018-05-01T05:37:46.548Z,25.20
2018-05-01T05:38:46.522Z,27.60
2018-05-01T05:39:46.500Z,26.00
2018-05-01T05:40:46.472Z,29.60
2018-05-01T05:41:46.447Z,24.70
2018-05-01T05:42:46.429Z,27.80
2018-05-01T05:43:46.394Z,25.70
2018-05-01T05:44:46.366Z,25.60
2018-05-01T05:45:46.344Z,23.60
2018-05-01T05:46:46.313Z,23.00
2018-05-01T05:47:46.280Z,23.60
2018-05-01T05:48:46.484Z,25.00
2018-05-01T05:49:46.223Z,22.20
2018-05-01T05:50:46.200Z,24.70
2018-05-01T05:51:46.179Z,31.90
2018-05-01T05:52:46.144Z,26.10
2018-05-01T05:53:46.132Z,22.80
2018-05-01T05:54:46.097Z,21.00
2018-05-01T05:55:46.070Z,25.00
2018-05-01T05:56:46.042Z,22.70
2018-05-01T05:57:46.018Z,23.30
2018-05-01T05:58:45.983Z,24.00
2018-05-01T05:59:45.999Z,22.60
2018-05-01T06:00:45.936Z,20.90
2018-05-01T06:01:45.904Z,19.40
2018-05-01T06:02:45.880Z,22.70
2018-05-01T06:03:45.851Z,24.10
2018-05-01T06:04:45.821Z,23.30
2018-05-01T06:05:45.800Z,17.30
2018-05-01T06:06:45.769Z,20.20
2018-05-01T06:07:45.822Z,19.50
2018-05-01T06:08:45.721Z,18.00
2018-05-01T06:09:45.688Z,17.60
2018-05-01T06:10:45.667Z,19.70
2018-05-01T06:11:45.637Z,16.90
2018-05-01T06:12:45.609Z,17.20
2018-05-01T06:13:45.623Z,15.40
2018-05-01T06:14:45.550Z,23.50
2018-05-01T06:15:45.534Z,16.80
2018-05-01T06:16:45.506Z,19.90
2018-05-01T06:17:45.480Z,17.60
2018-05-01T06:18:45.453Z,20.40
2018-05-01T06:19:45.420Z,18.50
2018-05-01T06:20:45.394Z,22.40
2018-05-01T06:21:45.376Z,18.70
2018-05-01T06:22:45.338Z,20.20
2018-05-01T06:23:45.326Z,17.90
2018-05-01T06:24:45.288Z,17.80
2018-05-01T06:25:45.260Z,19.20
2018-05-01T06:26:45.234Z,18.30
2018-05-01T06:27:45.211Z,17.20
2018-05-01T06:28:45.174Z,16.60
2018-05-01T06:29:45.155Z,19.10
2018-05-01T06:30:45.124Z,19.80
2018-05-01T06:31:45.100Z,21.20
2018-05-01T06:32:45.076Z,15.70
2018-05-01T06:33:45.044Z,19.10
2018-05-01T06:34:45.024Z,20.00
2018-05-01T06:35:44.988Z,19.70
2018-05-01T06:36:44.965Z,19.20
2018-05-01T06:37:44.934Z,19.50
2018-05-01T06:38:44.909Z,18.10
2018-05-01T06:39:44.886Z,19.00
2018-05-01T06:40:44.900Z,18.50
2018-05-01T06:41:44.830Z,18.00
2018-05-01T06:42:44.806Z,16.20
2018-05-01T06:43:44.776Z,23.10
2018-05-01T06:44:44.752Z,17.30
2018-05-01T06:45:44.720Z,17.60
2018-05-01T06:46:44.710Z,16.70
2018-05-01T06:47:44.676Z,18.60
2018-05-01T06:48:44.651Z,17.90
2018-05-01T06:49:44.611Z,15.80
2018-05-01T06:50:44.614Z,16.20
2018-05-01T06:51:44.564Z,19.40
2018-05-01T06:52:44.538Z,17.30
2018-05-01T06:53:44.510Z,19.50
2018-05-01T06:54:44.490Z,17.30
2018-05-01T06:55:44.454Z,16.00
2018-05-01T06:56:44.429Z,15.00
2018-05-01T06:57:44.461Z,14.90
2018-05-01T06:58:44.368Z,16.50
2018-05-01T06:59:44.346Z,16.60
2018-05-01T07:00:44.322Z,15.90
2018-05-01T07:01:44.289Z,17.30
2018-05-01T07:02:44.266Z,13.60
2018-05-01T07:03:44.235Z,15.30
2018-05-01T07:04:44.210Z,15.80
2018-05-01T07:05:44.188Z,14.50
2018-05-01T07:06:44.161Z,21.60
2018-05-01T07:07:44.136Z,14.90
2018-05-01T07:08:44.104Z,16.90
2018-05-01T07:09:44.072Z,15.10
2018-05-01T07:10:44.053Z,12.90
2018-05-01T07:11:44.027Z,17.70
2018-05-01T07:12:43.990Z,16.70
2018-05-01T07:13:43.975Z,17.30
2018-05-01T07:14:43.940Z,16.10
2018-05-01T07:15:43.931Z,16.50
2018-05-01T07:16:43.887Z,14.70
2018-05-01T07:17:43.870Z,14.50
2018-05-01T07:18:43.840Z,13.80
2018-05-01T07:19:43.806Z,13.70
2018-05-01T07:20:43.789Z,14.10
2018-05-01T07:21:43.751Z,14.90
2018-05-01T07:22:43.730Z,15.90
2018-05-01T07:23:43.700Z,16.50
2018-05-01T07:24:43.678Z,15.50
2018-05-01T07:25:43.646Z,14.40
2018-05-01T07:26:43.620Z,11.10
2018-05-01T07:27:43.596Z,15.40
2018-05-01T07:28:43.566Z,14.00
2018-05-01T07:29:43.546Z,16.70
2018-05-01T07:30:43.519Z,14.90
2018-05-01T07:31:43.483Z,14.60
2018-05-01T07:32:43.472Z,14.10
2018-05-01T07:33:43.428Z,13.20
2018-05-01T07:34:43.404Z,14.50
2018-05-01T07:35:43.385Z,11.60
2018-05-01T07:36:43.353Z,12.90
2018-05-01T07:37:43.334Z,12.40
2018-05-01T07:38:43.306Z,10.10
2018-05-01T07:39:43.269Z,15.00
2018-05-01T07:40:43.252Z,12.20
2018-05-01T07:41:43.275Z,11.80
2018-05-01T07:42:43.192Z,13.10
2018-05-01T07:43:43.172Z,12.00
2018-05-01T07:44:43.139Z,13.00
2018-05-01T07:45:43.118Z,15.90
2018-05-01T07:46:43.091Z,13.00
2018-05-01T07:47:43.061Z,12.80
2018-05-01T07:48:43.037Z,10.60
2018-05-01T07:49:43.010Z,10.70
2018-05-01T07:50:42.981Z,10.50
2018-05-01T07:51:42.957Z,10.60
2018-05-01T07:52:42.929Z,9.70
2018-05-01T07:53:42.903Z,10.00
2018-05-01T07:54:42.871Z,11.50
2018-05-01T07:55:42.855Z,12.80
2018-05-01T07:56:42.822Z,12.10
2018-05-01T07:57:42.793Z,11.20
2018-05-01T07:58:42.775Z,12.00
2018-05-01T07:59:42.745Z,10.40
2018-05-01T08:00:42.720Z,11.60
2018-05-01T08:01:42.686Z,11.00
2018-05-01T08:02:42.665Z,11.60
2018-05-01T08:03:42.639Z,8.50
2018-05-01T08:04:42.617Z,10.80
2018-05-01T08:05:42.579Z,11.70
2018-05-01T08:06:42.556Z,9.70
2018-05-01T08:07:42.528Z,12.00
2018-05-01T08:08:42.549Z,12.10
2018-05-01T08:09:42.481Z,9.80
2018-05-01T08:10:42.460Z,12.80
2018-05-01T08:11:42.419Z,10.30
2018-05-01T08:12:42.401Z,10.60
2018-05-01T08:13:42.373Z,11.30
2018-05-01T08:14:42.340Z,11.20
2018-05-01T08:15:42.315Z,10.00
2018-05-01T08:16:42.288Z,9.00
2018-05-01T08:17:42.268Z,10.60
2018-05-01T08:18:42.276Z,12.60
2018-05-01T08:19:42.215Z,9.80
2018-05-01T08:20:42.182Z,8.80
2018-05-01T08:21:42.164Z,11.70
2018-05-01T08:22:42.193Z,11.60
2018-05-01T08:23:42.123Z,12.50
2018-05-01T08:24:42.174Z,12.00
2018-05-01T08:25:42.047Z,11.70
2018-05-01T08:26:42.026Z,10.60
2018-05-01T08:27:42.049Z,10.20
2018-05-01T08:28:41.975Z,10.00
2018-05-01T08:29:41.944Z,7.60
2018-05-01T08:30:41.929Z,9.50
2018-05-01T08:31:41.899Z,11.10
2018-05-01T08:32:41.876Z,9.00
2018-05-01T08:33:41.837Z,10.60
2018-05-01T08:34:41.821Z,10.60
2018-05-01T08:35:41.786Z,10.30
2018-05-01T08:36:41.767Z,10.90
2018-05-01T08:37:41.787Z,8.70
2018-05-01T08:38:41.704Z,8.50
2018-05-01T08:39:41.686Z,8.90
2018-05-01T08:40:41.654Z,9.70
2018-05-01T08:41:41.632Z,8.20
2018-05-01T08:42:41.605Z,10.00
2018-05-01T08:43:41.572Z,7.80
2018-05-01T08:44:41.547Z,9.00
2018-05-01T08:45:41.525Z,9.00
2018-05-01T08:46:41.498Z,10.20
2018-05-01T08:47:41.470Z,10.00
2018-05-01T08:48:41.442Z,8.50
2018-05-01T08:49:41.422Z,8.10
2018-05-01T08:50:41.397Z,10.00
2018-05-01T08:51:41.366Z,6.50
2018-05-01T08:52:41.342Z,10.00
2018-05-01T08:53:41.311Z,9.70
2018-05-01T08:54:41.285Z,7.40
2018-05-01T08:55:41.260Z,9.90
2018-05-01T08:56:41.230Z,8.60
2018-05-01T08:57:41.209Z,6.30
2018-05-01T08:58:41.176Z,8.90
2018-05-01T08:59:41.158Z,6.80
2018-05-01T09:00:41.124Z,7.80
2018-05-01T09:01:41.098Z,8.10
2018-05-01T09:02:41.072Z,6.80
2018-05-01T09:03:41.096Z,6.50
2018-05-01T09:04:41.022Z,8.60
2018-05-01T09:05:41.013Z,7.90
2018-05-01T09:06:40.973Z,7.70
2018-05-01T09:07:41.559Z,6.90
2018-05-01T09:08:40.917Z,9.70
2018-05-01T09:09:40.889Z,11.10
2018-05-01T09:10:40.860Z,8.30
2018-05-01T09:11:40.841Z,9.00
2018-05-01T09:12:40.813Z,9.50
2018-05-01T09:13:40.785Z,8.30
2018-05-01T09:14:40.761Z,7.70
2018-05-01T09:15:40.744Z,11.40
2018-05-01T09:16:40.711Z,8.20
2018-05-01T09:17:40.712Z,10.10
2018-05-01T09:18:40.648Z,7.20
2018-05-01T09:19:40.626Z,8.40
2018-05-01T09:20:40.604Z,10.50
2018-05-01T09:21:40.572Z,8.70
2018-05-01T09:22:40.552Z,11.90
2018-05-01T09:23:40.519Z,10.30
2018-05-01T09:24:40.501Z,9.90
2018-05-01T09:25:40.548Z,8.90
2018-05-01T09:26:40.441Z,7.20
2018-05-01T09:27:40.416Z,6.40
2018-05-01T09:28:40.388Z,8.50
2018-05-01T09:29:40.376Z,10.10
2018-05-01T09:30:40.333Z,8.70
2018-05-01T09:31:40.316Z,9.70
2018-05-01T09:32:40.287Z,9.50
2018-05-01T09:33:40.256Z,8.60
2018-05-01T09:34:40.233Z,9.60
2018-05-01T09:35:40.207Z,9.20
2018-05-01T09:36:40.178Z,9.80
2018-05-01T09:37:40.149Z,8.00
2018-05-01T09:38:40.130Z,9.60
2018-05-01T09:39:40.101Z,8.90
2018-05-01T09:40:40.077Z,7.40
2018-05-01T09:41:40.048Z,8.90
2018-05-01T09:42:40.020Z,7.80
2018-05-01T09:43:39.999Z,7.10
2018-05-01T09:44:39.986Z,8.40
2018-05-01T09:45:39.972Z,9.80
2018-05-01T09:46:39.915Z,9.70
2018-05-01T09:47:39.938Z,8.80
2018-05-01T09:48:39.865Z,7.00
2018-05-01T09:49:39.841Z,8.00
2018-05-01T09:50:39.806Z,10.80
2018-05-01T09:51:39.783Z,10.60
2018-05-01T09:52:39.760Z,12.50
2018-05-01T09:53:39.741Z,8.90
2018-05-01T09:54:39.708Z,7.50
2018-05-01T09:55:39.680Z,8.80
2018-05-01T09:56:39.668Z,8.60
2018-05-01T09:57:39.644Z,9.20
2018-05-01T09:58:39.601Z,8.50
2018-05-01T09:59:39.578Z,7.50
2018-05-01T10:00:39.554Z,6.70
2018-05-01T10:01:39.546Z,11.40
2018-05-01T10:02:39.499Z,9.80
2018-05-01T10:03:39.472Z,7.10
2018-05-01T10:04:39.443Z,7.30
2018-05-01T10:05:39.417Z,9.30
2018-05-01T10:06:39.401Z,9.90
2018-05-01T10:07:39.370Z,10.60
2018-05-01T10:08:39.350Z,8.30
2018-05-01T10:09:39.310Z,11.30
2018-05-01T10:10:39.294Z,8.50
2018-05-01T10:11:39.262Z,8.50
2018-05-01T10:12:39.237Z,10.10
2018-05-01T10:13:39.247Z,8.00
2018-05-01T10:14:39.181Z,10.70
2018-05-01T10:15:39.165Z,8.70
2018-05-01T10:16:39.308Z,8.80
2018-05-01T10:17:39.185Z,8.10
2018-05-01T10:18:39.088Z,9.40
2018-05-01T10:19:39.105Z,9.60
2018-05-01T10:20:39.130Z,8.70
2018-05-01T10:21:39.522Z,7.80
2018-05-01T10:22:38.979Z,6.80
2018-05-01T10:23:39.437Z,7.80
2018-05-01T10:24:39.084Z,9.50
2018-05-01T10:25:39.456Z,8.50
2018-05-01T10:26:38.875Z,8.90
2018-05-01T10:27:38.847Z,7.60
2018-05-01T10:28:38.851Z,8.60
2018-05-01T10:29:38.795Z,8.30
2018-05-01T10:30:38.768Z,9.40
2018-05-01T10:31:38.744Z,9.00
2018-05-01T10:32:38.720Z,9.00
2018-05-01T10:33:38.693Z,8.10
2018-05-01T10:34:38.666Z,8.70
2018-05-01T10:35:38.660Z,8.60
2018-05-01T10:36:38.610Z,9.70
2018-05-01T10:37:38.584Z,9.20
2018-05-01T10:38:38.594Z,7.60
2018-05-01T10:39:38.533Z,7.00
2018-05-01T10:40:38.513Z,8.50
2018-05-01T10:41:38.561Z,6.60
2018-05-01T10:42:38.461Z,5.50
2018-05-01T10:43:38.429Z,7.00
2018-05-01T10:44:38.416Z,7.40
2018-05-01T10:45:38.378Z,8.40
2018-05-01T10:46:38.348Z,11.00
2018-05-01T10:47:38.332Z,8.50
2018-05-01T10:48:38.336Z,7.80
2018-05-01T10:49:38.294Z,9.90
2018-05-01T10:50:38.251Z,9.00
2018-05-01T10:51:38.230Z,7.60
2018-05-01T10:52:38.213Z,7.80
2018-05-01T10:53:38.177Z,5.90
2018-05-01T10:54:38.237Z,5.90
2018-05-01T10:55:38.128Z,6.60
2018-05-01T10:56:38.109Z,6.30
2018-05-01T10:57:38.075Z,6.10
2018-05-01T10:58:38.049Z,10.40
2018-05-01T10:59:38.016Z,7.20
2018-05-01T11:00:38.037Z,6.20
2018-05-01T11:01:37.969Z,7.00
2018-05-01T11:02:37.938Z,7.20
2018-05-01T11:03:37.914Z,7.10
2018-05-01T11:04:37.892Z,7.20
2018-05-01T11:05:37.858Z,8.40
2018-05-01T11:06:37.842Z,10.30
2018-05-01T11:07:37.807Z,7.50
2018-05-01T11:08:37.791Z,8.40
2018-05-01T11:09:37.753Z,7.80
2018-05-01T11:10:37.733Z,7.60
2018-05-01T11:11:37.704Z,7.20
2018-05-01T11:12:37.681Z,8.00
2018-05-01T11:13:37.665Z,7.80
2018-05-01T11:14:37.635Z,7.50
2018-05-01T11:15:37.610Z,9.30
2018-05-01T11:16:37.582Z,9.10
2018-05-01T11:17:37.549Z,7.50
2018-05-01T11:18:37.524Z,9.00
2018-05-01T11:19:37.500Z,9.10
2018-05-01T11:20:37.483Z,9.40
2018-05-01T11:21:37.448Z,10.50
2018-05-01T11:22:37.422Z,9.60
2018-05-01T11:23:37.394Z,6.50
2018-05-01T11:24:37.400Z,7.70
2018-05-01T11:25:37.348Z,7.60
2018-05-01T11:26:37.325Z,9.70
2018-05-01T11:27:37.289Z,12.20
2018-05-01T11:28:37.308Z,8.20
2018-05-01T11:29:37.245Z,8.10
2018-05-01T11:30:37.225Z,6.20
2018-05-01T11:31:37.186Z,6.70
2018-05-01T11:32:37.171Z,7.80
2018-05-01T11:33:37.208Z,8.70
2018-05-01T11:34:37.108Z,7.70
2018-05-01T11:35:37.091Z,8.30
2018-05-01T11:36:37.067Z,7.50
2018-05-01T11:37:37.040Z,8.40
2018-05-01T11:38:37.009Z,7.40
2018-05-01T11:39:37.014Z,9.40
2018-05-01T11:40:36.988Z,9.80
2018-05-01T11:41:36.952Z,7.50
2018-05-01T11:42:36.942Z,8.20
2018-05-01T11:43:36.931Z,9.30
2018-05-01T11:44:36.865Z,10.10
2018-05-01T11:45:36.827Z,8.40
2018-05-01T11:46:36.799Z,8.10
2018-05-01T11:47:36.781Z,8.10
2018-05-01T11:48:36.754Z,7.60
2018-05-01T11:49:36.727Z,9.40
2018-05-01T11:50:36.708Z,9.20
2018-05-01T11:51:36.674Z,9.50
2018-05-01T11:52:36.648Z,9.80
2018-05-01T11:53:36.624Z,10.20
2018-05-01T11:54:36.599Z,8.60
2018-05-01T11:55:36.570Z,8.90
2018-05-01T11:56:36.546Z,9.90
2018-05-01T11:57:36.519Z,8.70
2018-05-01T11:58:36.494Z,9.20
2018-05-01T11:59:36.475Z,7.90
2018-05-01T12:00:36.448Z,9.00
2018-05-01T12:01:36.417Z,10.30
2018-05-01T12:02:36.469Z,8.60
2018-05-01T12:03:36.368Z,6.80
2018-05-01T12:04:36.341Z,6.90
2018-05-01T12:05:36.320Z,8.30
2018-05-01T12:06:36.288Z,8.20
2018-05-01T12:07:36.262Z,8.70
2018-05-01T12:08:36.243Z,9.10
2018-05-01T12:09:36.213Z,7.50
2018-05-01T12:10:36.197Z,8.10
2018-05-01T12:11:36.165Z,7.80
2018-05-01T12:12:36.140Z,8.70
2018-05-01T12:13:36.109Z,9.30
2018-05-01T12:14:36.080Z,7.30
2018-05-01T12:15:36.063Z,7.20
2018-05-01T12:16:36.033Z,7.70
2018-05-01T12:17:36.011Z,12.10
2018-05-01T12:18:36.019Z,10.20
2018-05-01T12:19:35.958Z,7.60
2018-05-01T12:20:35.931Z,6.10
2018-05-01T12:21:35.903Z,8.70
2018-05-01T12:22:35.876Z,8.80
2018-05-01T12:23:35.937Z,9.00
2018-05-01T12:24:35.833Z,7.70
2018-05-01T12:25:35.805Z,7.20
2018-05-01T12:26:35.778Z,12.20
2018-05-01T12:27:35.752Z,6.10
2018-05-01T12:28:35.733Z,7.80
2018-05-01T12:29:35.701Z,6.30
2018-05-01T12:30:35.674Z,5.90
2018-05-01T12:31:35.651Z,4.90
2018-05-01T12:32:35.626Z,6.70
2018-05-01T12:33:35.604Z,6.80
2018-05-01T12:34:35.580Z,8.70
2018-05-01T12:35:35.542Z,6.30
2018-05-01T12:36:35.632Z,9.00
2018-05-01T12:37:35.496Z,5.60
2018-05-01T12:38:35.467Z,7.90
2018-05-01T12:39:35.451Z,6.60
2018-05-01T12:40:35.415Z,9.30
2018-05-01T12:41:35.399Z,7.20
2018-05-01T12:42:35.376Z,7.10
2018-05-01T12:43:35.341Z,5.70
2018-05-01T12:44:35.325Z,6.00
2018-05-01T12:45:35.286Z,5.80
2018-05-01T12:46:35.268Z,7.30
2018-05-01T12:47:35.246Z,7.50
2018-05-01T12:48:35.285Z,7.00
2018-05-01T12:49:35.190Z,7.80
2018-05-01T12:50:35.166Z,5.70
2018-05-01T12:51:35.141Z,5.30
2018-05-01T12:52:35.115Z,7.10
2018-05-01T12:53:35.094Z,5.90
2018-05-01T12:54:35.069Z,6.50
2018-05-01T12:55:35.037Z,7.60
2018-05-01T12:56:35.013Z,5.10
2018-05-01T12:57:34.988Z,7.40
2018-05-01T12:58:34.960Z,4.70
2018-05-01T12:59:34.943Z,6.40
2018-05-01T13:00:34.963Z,6.70
2018-05-01T13:01:34.890Z,4.60
2018-05-01T13:02:34.861Z,4.10
2018-05-01T13:03:34.831Z,5.40
2018-05-01T13:04:34.814Z,5.30
2018-05-01T13:05:34.780Z,4.40
2018-05-01T13:06:34.761Z,5.80
2018-05-01T13:07:34.728Z,4.70